sensor_id;sensor_type;location;lat;lon;timestamp;pressure;altitude;pressure_sealevel;temperature;humidity
21594;BME280;10959;51.328;7.322;2023-06-14T00:01:09;73118.63;;;-147.06;35.59
21594;BME280;10959;51.328;7.322;2023-06-14T00:03:38;73135.00;;;-147.06;35.60
21594;BME280;10959;51.328;7.322;2023-06-14T00:06:05;73143.19;;;-147.06;35.60
21594;BME280;10959;51.328;7.322;2023-06-14T00:08:31;73147.28;;;-147.06;35.72
21594;BME280;10959;51.328;7.322;2023-06-14T00:10:58;73149.34;;;-147.06;35.77
21594;BME280;10959;51.328;7.322;2023-06-14T00:13:25;73147.28;;;-147.06;35.62
21594;BME280;10959;51.328;7.322;2023-06-14T00:15:51;73151.38;;;-147.06;35.63
21594;BME280;10959;51.328;7.322;2023-06-14T00:18:21;73161.63;;;-147.06;35.82
21594;BME280;10959;51.328;7.322;2023-06-14T00:20:54;73171.88;;;-147.06;36.05
21594;BME280;10959;51.328;7.322;2023-06-14T00:23:21;73173.91;;;-147.06;35.78
21594;BME280;10959;51.328;7.322;2023-06-14T00:25:48;73171.88;;;-147.06;36.26
21594;BME280;10959;51.328;7.322;2023-06-14T00:28:14;73175.97;;;-147.06;35.86
21594;BME280;10959;51.328;7.322;2023-06-14T00:30:41;73184.16;;;-147.06;35.93
21594;BME280;10959;51.328;7.322;2023-06-14T00:33:09;73188.25;;;-147.06;35.97
21594;BME280;10959;51.328;7.322;2023-06-14T00:35:37;73192.34;;;-147.06;36.13
21594;BME280;10959;51.328;7.322;2023-06-14T00:38:03;73196.44;;;-147.06;36.52
21594;BME280;10959;51.328;7.322;2023-06-14T00:40:30;73204.66;;;-147.06;36.44
21594;BME280;10959;51.328;7.322;2023-06-14T00:42:56;73208.75;;;-147.06;36.47
21594;BME280;10959;51.328;7.322;2023-06-14T00:45:23;73216.94;;;-147.06;36.09
21594;BME280;10959;51.328;7.322;2023-06-14T00:47:50;73216.94;;;-147.06;36.36
21594;BME280;10959;51.328;7.322;2023-06-14T00:50:18;73225.13;;;-147.06;36.57
21594;BME280;10959;51.328;7.322;2023-06-14T00:52:47;73227.16;;;-147.06;36.51
21594;BME280;10959;51.328;7.322;2023-06-14T00:55:14;73237.41;;;-147.06;36.44
21594;BME280;10959;51.328;7.322;2023-06-14T00:57:40;73241.50;;;-147.06;36.34
21594;BME280;10959;51.328;7.322;2023-06-14T01:00:08;73249.69;;;-147.06;36.68
21594;BME280;10959;51.328;7.322;2023-06-14T01:02:35;73262.00;;;-147.06;36.72
21594;BME280;10959;51.328;7.322;2023-06-14T01:05:03;73266.09;;;-147.06;36.69
21594;BME280;10959;51.328;7.322;2023-06-14T01:07:40;73282.47;;;-147.06;37.08
21594;BME280;10959;51.328;7.322;2023-06-14T01:10:22;73298.84;;;-147.06;37.00
21594;BME280;10959;51.328;7.322;2023-06-14T01:12:58;73292.72;;;-147.06;36.73
21594;BME280;10959;51.328;7.322;2023-06-14T01:15:26;73290.66;;;-147.06;36.77
21594;BME280;10959;51.328;7.322;2023-06-14T01:17:54;73290.66;;;-147.06;37.04
21594;BME280;10959;51.328;7.322;2023-06-14T01:20:28;73300.91;;;-147.06;37.27
21594;BME280;10959;51.328;7.322;2023-06-14T01:22:57;73296.81;;;-147.06;37.15
21594;BME280;10959;51.328;7.322;2023-06-14T01:25:24;73307.06;;;-147.06;37.02
21594;BME280;10959;51.328;7.322;2023-06-14T01:27:53;73298.84;;;-147.06;37.24
21594;BME280;10959;51.328;7.322;2023-06-14T01:30:20;73307.06;;;-147.06;37.17
21594;BME280;10959;51.328;7.322;2023-06-14T01:32:47;73302.94;;;-147.06;37.64
21594;BME280;10959;51.328;7.322;2023-06-14T01:35:15;73307.06;;;-147.06;37.19
21594;BME280;10959;51.328;7.322;2023-06-14T01:37:42;73315.25;;;-147.06;37.40
21594;BME280;10959;51.328;7.322;2023-06-14T01:40:12;73335.72;;;-147.06;37.74
21594;BME280;10959;51.328;7.322;2023-06-14T01:42:41;73341.88;;;-147.06;37.95
21594;BME280;10959;51.328;7.322;2023-06-14T01:45:09;73348.00;;;-147.06;37.77
21594;BME280;10959;51.328;7.322;2023-06-14T01:47:36;73339.81;;;-147.06;37.48
21594;BME280;10959;51.328;7.322;2023-06-14T01:50:03;73341.88;;;-147.06;37.68
21594;BME280;10959;51.328;7.322;2023-06-14T01:52:30;73335.72;;;-147.06;37.63
21594;BME280;10959;51.328;7.322;2023-06-14T01:54:56;73331.63;;;-147.06;37.51
21594;BME280;10959;51.328;7.322;2023-06-14T01:57:25;73335.72;;;-147.06;37.90
21594;BME280;10959;51.328;7.322;2023-06-14T01:59:52;73339.81;;;-147.06;37.81
21594;BME280;10959;51.328;7.322;2023-06-14T02:02:19;73352.13;;;-147.06;38.31
21594;BME280;10959;51.328;7.322;2023-06-14T02:04:45;73364.41;;;-147.06;38.29
21594;BME280;10959;51.328;7.322;2023-06-14T02:07:13;73366.44;;;-147.06;38.48
21594;BME280;10959;51.328;7.322;2023-06-14T02:09:40;73384.88;;;-147.06;38.29
21594;BME280;10959;51.328;7.322;2023-06-14T02:12:07;73388.97;;;-147.06;38.44
21594;BME280;10959;51.328;7.322;2023-06-14T02:14:34;73397.19;;;-147.06;38.56
21594;BME280;10959;51.328;7.322;2023-06-14T02:17:01;73401.28;;;-147.06;38.39
21594;BME280;10959;51.328;7.322;2023-06-14T02:19:27;73409.47;;;-147.06;38.72
21594;BME280;10959;51.328;7.322;2023-06-14T02:21:54;73405.38;;;-147.06;38.63
21594;BME280;10959;51.328;7.322;2023-06-14T02:24:20;73405.38;;;-147.06;38.37
21594;BME280;10959;51.328;7.322;2023-06-14T02:26:48;73407.41;;;-147.06;38.44
21594;BME280;10959;51.328;7.322;2023-06-14T02:29:15;73411.50;;;-147.06;38.72
21594;BME280;10959;51.328;7.322;2023-06-14T02:31:43;73409.47;;;-147.06;38.58
21594;BME280;10959;51.328;7.322;2023-06-14T02:34:12;73421.75;;;-147.06;38.47
21594;BME280;10959;51.328;7.322;2023-06-14T02:36:38;73421.75;;;-147.06;38.69
21594;BME280;10959;51.328;7.322;2023-06-14T02:39:07;73425.84;;;-147.06;38.65
21594;BME280;10959;51.328;7.322;2023-06-14T02:41:34;73432.00;;;-147.06;38.93
21594;BME280;10959;51.328;7.322;2023-06-14T02:44:01;73438.13;;;-147.06;38.95
21594;BME280;10959;51.328;7.322;2023-06-14T02:46:27;73444.28;;;-147.06;38.90
21594;BME280;10959;51.328;7.322;2023-06-14T02:48:55;73442.25;;;-147.06;39.02
21594;BME280;10959;51.328;7.322;2023-06-14T02:51:21;73444.28;;;-147.06;38.81
21594;BME280;10959;51.328;7.322;2023-06-14T02:53:48;73444.28;;;-147.06;38.69
21594;BME280;10959;51.328;7.322;2023-06-14T02:56:15;73444.28;;;-147.06;38.51
21594;BME280;10959;51.328;7.322;2023-06-14T02:58:42;73438.13;;;-147.06;38.63
21594;BME280;10959;51.328;7.322;2023-06-14T03:01:09;73444.28;;;-147.06;38.25
21594;BME280;10959;51.328;7.322;2023-06-14T03:03:38;73442.25;;;-147.06;38.31
21594;BME280;10959;51.328;7.322;2023-06-14T03:06:05;73446.34;;;-147.06;38.49
21594;BME280;10959;51.328;7.322;2023-06-14T03:08:33;73454.53;;;-147.06;38.71
21594;BME280;10959;51.328;7.322;2023-06-14T03:11:04;73466.81;;;-147.06;39.04
21594;BME280;10959;51.328;7.322;2023-06-14T03:13:31;73487.31;;;-147.06;39.44
21594;BME280;10959;51.328;7.322;2023-06-14T03:15:58;73507.78;;;-147.06;39.61
21594;BME280;10959;51.328;7.322;2023-06-14T03:18:27;73515.97;;;-147.06;39.58
21594;BME280;10959;51.328;7.322;2023-06-14T03:20:54;73509.81;;;-147.06;39.42
21594;BME280;10959;51.328;7.322;2023-06-14T03:23:23;73503.69;;;-147.06;39.56
21594;BME280;10959;51.328;7.322;2023-06-14T03:25:50;73507.78;;;-147.06;39.44
21594;BME280;10959;51.328;7.322;2023-06-14T03:28:17;73513.94;;;-147.06;39.48
21594;BME280;10959;51.328;7.322;2023-06-14T03:30:43;73507.78;;;-147.06;39.27
21594;BME280;10959;51.328;7.322;2023-06-14T03:33:09;73511.88;;;-147.06;39.29
21594;BME280;10959;51.328;7.322;2023-06-14T03:35:36;73511.88;;;-147.06;39.39
21594;BME280;10959;51.328;7.322;2023-06-14T03:38:02;73511.88;;;-147.06;39.44
21594;BME280;10959;51.328;7.322;2023-06-14T03:40:30;73515.97;;;-147.06;39.50
21594;BME280;10959;51.328;7.322;2023-06-14T03:42:57;73530.31;;;-147.06;39.66
21594;BME280;10959;51.328;7.322;2023-06-14T03:45:24;73536.47;;;-147.06;40.03
21594;BME280;10959;51.328;7.322;2023-06-14T03:47:50;73561.03;;;-147.06;40.14
21594;BME280;10959;51.328;7.322;2023-06-14T03:50:17;73575.38;;;-147.06;40.24
21594;BME280;10959;51.328;7.322;2023-06-14T03:52:44;73585.63;;;-147.06;40.95
21594;BME280;10959;51.328;7.322;2023-06-14T03:55:11;73606.09;;;-147.06;41.24
21594;BME280;10959;51.328;7.322;2023-06-14T03:57:40;73622.50;;;-147.06;40.92
21594;BME280;10959;51.328;7.322;2023-06-14T04:00:08;73622.50;;;-147.06;41.01
21594;BME280;10959;51.328;7.322;2023-06-14T04:02:35;73630.69;;;-147.06;41.50
21594;BME280;10959;51.328;7.322;2023-06-14T04:05:02;73665.50;;;-147.06;42.15
21594;BME280;10959;51.328;7.322;2023-06-14T04:07:29;73696.22;;;-147.06;42.59
21594;BME280;10959;51.328;7.322;2023-06-14T04:09:55;73706.47;;;-147.06;42.75
21594;BME280;10959;51.328;7.322;2023-06-14T04:12:22;73720.81;;;-147.06;43.16
21594;BME280;10959;51.328;7.322;2023-06-14T04:14:49;73733.09;;;-147.06;42.95
21594;BME280;10959;51.328;7.322;2023-06-14T04:17:16;73741.28;;;-147.06;43.27
21594;BME280;10959;51.328;7.322;2023-06-14T04:19:42;73749.50;;;-147.06;43.46
21594;BME280;10959;51.328;7.322;2023-06-14T04:22:09;73769.97;;;-147.06;43.68
21594;BME280;10959;51.328;7.322;2023-06-14T04:24:36;73765.88;;;-147.06;43.67
21594;BME280;10959;51.328;7.322;2023-06-14T04:27:03;73765.88;;;-147.06;43.48
21594;BME280;10959;51.328;7.322;2023-06-14T04:29:29;73769.97;;;-147.06;43.63
21594;BME280;10959;51.328;7.322;2023-06-14T04:31:58;73769.97;;;-147.06;43.41
21594;BME280;10959;51.328;7.322;2023-06-14T04:34:25;73749.50;;;-147.06;43.11
21594;BME280;10959;51.328;7.322;2023-06-14T04:36:55;73729.00;;;-147.06;42.86
21594;BME280;10959;51.328;7.322;2023-06-14T04:39:21;73712.63;;;-147.06;42.59
21594;BME280;10959;51.328;7.322;2023-06-14T04:41:48;73696.22;;;-147.06;42.52
21594;BME280;10959;51.328;7.322;2023-06-14T04:44:17;73696.22;;;-147.06;42.44
21594;BME280;10959;51.328;7.322;2023-06-14T04:46:43;73686.00;;;-147.06;42.13
21594;BME280;10959;51.328;7.322;2023-06-14T04:49:12;73675.75;;;-147.06;41.92
21594;BME280;10959;51.328;7.322;2023-06-14T04:51:40;73686.00;;;-147.06;42.06
21594;BME280;10959;51.328;7.322;2023-06-14T04:54:07;73667.56;;;-147.06;41.77
21594;BME280;10959;51.328;7.322;2023-06-14T04:56:35;73675.75;;;-147.06;41.96
21594;BME280;10959;51.328;7.322;2023-06-14T04:59:02;73663.47;;;-147.06;41.78
21594;BME280;10959;51.328;7.322;2023-06-14T05:01:29;73640.94;;;-147.06;41.80
21594;BME280;10959;51.328;7.322;2023-06-14T05:03:56;73640.94;;;-147.06;41.56
21594;BME280;10959;51.328;7.322;2023-06-14T05:06:24;73626.59;;;-147.06;41.52
21594;BME280;10959;51.328;7.322;2023-06-14T05:08:52;73630.69;;;-147.06;41.29
21594;BME280;10959;51.328;7.322;2023-06-14T05:11:19;73640.94;;;-147.06;41.27
21594;BME280;10959;51.328;7.322;2023-06-14T05:13:49;73642.97;;;-147.06;41.62
21594;BME280;10959;51.328;7.322;2023-06-14T05:16:15;73671.66;;;-147.06;42.03
21594;BME280;10959;51.328;7.322;2023-06-14T05:18:44;73667.56;;;-147.06;42.08
21594;BME280;10959;51.328;7.322;2023-06-14T05:21:11;73661.41;;;-147.06;42.36
21594;BME280;10959;51.328;7.322;2023-06-14T05:23:39;73638.88;;;-147.06;42.10
21594;BME280;10959;51.328;7.322;2023-06-14T05:26:05;73610.19;;;-147.06;41.86
21594;BME280;10959;51.328;7.322;2023-06-14T05:28:31;73589.72;;;-147.06;41.66
21594;BME280;10959;51.328;7.322;2023-06-14T05:30:58;73567.19;;;-147.06;41.08
21594;BME280;10959;51.328;7.322;2023-06-14T05:33:25;73567.19;;;-147.06;40.71
21594;BME280;10959;51.328;7.322;2023-06-14T05:35:51;73552.84;;;-147.06;40.73
21594;BME280;10959;51.328;7.322;2023-06-14T05:38:18;73528.25;;;-147.06;40.56
21594;BME280;10959;51.328;7.322;2023-06-14T05:40:45;73503.69;;;-147.06;40.60
21594;BME280;10959;51.328;7.322;2023-06-14T05:43:12;73491.41;;;-147.06;40.55
21594;BME280;10959;51.328;7.322;2023-06-14T05:45:38;73477.06;;;-147.06;40.31
21594;BME280;10959;51.328;7.322;2023-06-14T05:48:05;73475.00;;;-147.06;40.21
21594;BME280;10959;51.328;7.322;2023-06-14T05:50:31;73458.63;;;-147.06;40.26
21594;BME280;10959;51.328;7.322;2023-06-14T05:52:58;73442.25;;;-147.06;40.48
21594;BME280;10959;51.328;7.322;2023-06-14T05:55:24;73425.84;;;-147.06;40.56
21594;BME280;10959;51.328;7.322;2023-06-14T05:57:52;73413.56;;;-147.06;39.85
21594;BME280;10959;51.328;7.322;2023-06-14T06:00:19;73397.19;;;-147.06;40.04
21594;BME280;10959;51.328;7.322;2023-06-14T06:02:46;73393.06;;;-147.06;39.77
21594;BME280;10959;51.328;7.322;2023-06-14T06:05:13;73384.88;;;-147.06;38.98
21594;BME280;10959;51.328;7.322;2023-06-14T06:07:41;73388.97;;;-147.06;39.02
21594;BME280;10959;51.328;7.322;2023-06-14T06:10:09;73405.38;;;-147.06;39.06
21594;BME280;10959;51.328;7.322;2023-06-14T06:12:36;73401.28;;;-147.06;39.24
21594;BME280;10959;51.328;7.322;2023-06-14T06:15:04;73364.41;;;-147.06;38.96
21594;BME280;10959;51.328;7.322;2023-06-14T06:17:31;73335.72;;;-147.06;38.97
21594;BME280;10959;51.328;7.322;2023-06-14T06:19:57;73323.44;;;-147.06;38.13
21594;BME280;10959;51.328;7.322;2023-06-14T06:22:24;73307.06;;;-147.06;38.13
21594;BME280;10959;51.328;7.322;2023-06-14T06:24:50;73286.56;;;-147.06;38.05
21594;BME280;10959;51.328;7.322;2023-06-14T06:27:17;73266.09;;;-147.06;37.89
21594;BME280;10959;51.328;7.322;2023-06-14T06:29:44;73241.50;;;-147.06;37.50
21594;BME280;10959;51.328;7.322;2023-06-14T06:32:11;73225.13;;;-147.06;37.69
21594;BME280;10959;51.328;7.322;2023-06-14T06:34:38;73216.94;;;-147.06;37.10
21594;BME280;10959;51.328;7.322;2023-06-14T06:37:05;73204.66;;;-147.06;36.85
21594;BME280;10959;51.328;7.322;2023-06-14T06:39:32;73192.34;;;-147.06;36.97
21594;BME280;10959;51.328;7.322;2023-06-14T06:41:59;73180.06;;;-147.06;36.40
21594;BME280;10959;51.328;7.322;2023-06-14T06:44:25;73175.97;;;-147.06;35.93
21594;BME280;10959;51.328;7.322;2023-06-14T06:46:52;73163.69;;;-147.06;36.11
21594;BME280;10959;51.328;7.322;2023-06-14T06:49:19;73163.69;;;-147.06;36.10
21594;BME280;10959;51.328;7.322;2023-06-14T06:51:59;73169.81;;;-147.06;36.46
21594;BME280;10959;51.328;7.322;2023-06-14T06:54:26;73159.59;;;-147.06;35.51
21594;BME280;10959;51.328;7.322;2023-06-14T06:56:52;73175.97;;;-147.06;35.32
21594;BME280;10959;51.328;7.322;2023-06-14T06:59:19;73175.97;;;-147.06;36.09
21594;BME280;10959;51.328;7.322;2023-06-14T07:01:46;73163.69;;;-147.06;35.85
21594;BME280;10959;51.328;7.322;2023-06-14T07:04:12;73135.00;;;-147.06;35.85
21594;BME280;10959;51.328;7.322;2023-06-14T07:06:41;73132.97;;;-147.06;35.27
21594;BME280;10959;51.328;7.322;2023-06-14T07:09:08;73135.00;;;-147.06;35.31
21594;BME280;10959;51.328;7.322;2023-06-14T07:11:38;73114.53;;;-147.06;35.44
21594;BME280;10959;51.328;7.322;2023-06-14T07:14:04;73114.53;;;-147.06;35.31
21594;BME280;10959;51.328;7.322;2023-06-14T07:16:31;73132.97;;;-147.06;35.10
21594;BME280;10959;51.328;7.322;2023-06-14T07:18:57;73106.34;;;-147.06;35.22
21594;BME280;10959;51.328;7.322;2023-06-14T07:21:24;73089.94;;;-147.06;34.92
21594;BME280;10959;51.328;7.322;2023-06-14T07:23:52;73083.81;;;-147.06;34.48
21594;BME280;10959;51.328;7.322;2023-06-14T07:26:19;73085.84;;;-147.06;34.46
21594;BME280;10959;51.328;7.322;2023-06-14T07:28:45;73079.72;;;-147.06;34.46
21594;BME280;10959;51.328;7.322;2023-06-14T07:31:12;73059.22;;;-147.06;34.48
21594;BME280;10959;51.328;7.322;2023-06-14T07:33:40;73053.09;;;-147.06;34.44
21594;BME280;10959;51.328;7.322;2023-06-14T07:36:06;73094.03;;;-147.06;34.33
21594;BME280;10959;51.328;7.322;2023-06-14T07:38:33;73057.19;;;-147.06;34.67
21594;BME280;10959;51.328;7.322;2023-06-14T07:41:01;73057.19;;;-147.06;33.91
21594;BME280;10959;51.328;7.322;2023-06-14T07:43:27;73053.09;;;-147.06;33.72
21594;BME280;10959;51.328;7.322;2023-06-14T07:45:54;73040.78;;;-147.06;33.70
21594;BME280;10959;51.328;7.322;2023-06-14T07:48:22;73096.09;;;-147.06;34.03
21594;BME280;10959;51.328;7.322;2023-06-14T07:50:48;73100.19;;;-147.06;34.54
21594;BME280;10959;51.328;7.322;2023-06-14T07:53:15;73104.28;;;-147.06;34.46
21594;BME280;10959;51.328;7.322;2023-06-14T07:55:41;73126.81;;;-147.06;34.34
21594;BME280;10959;51.328;7.322;2023-06-14T07:58:09;73118.63;;;-147.06;34.38
21594;BME280;10959;51.328;7.322;2023-06-14T08:00:36;73098.13;;;-147.06;34.41
21594;BME280;10959;51.328;7.322;2023-06-14T08:03:03;73106.34;;;-147.06;34.46
21594;BME280;10959;51.328;7.322;2023-06-14T08:05:29;73102.22;;;-147.06;34.46
21594;BME280;10959;51.328;7.322;2023-06-14T08:07:56;73059.22;;;-147.06;34.62
21594;BME280;10959;51.328;7.322;2023-06-14T08:10:23;73053.09;;;-147.06;33.77
21594;BME280;10959;51.328;7.322;2023-06-14T08:12:49;73044.88;;;-147.06;34.16
21594;BME280;10959;51.328;7.322;2023-06-14T08:15:17;73061.28;;;-147.06;34.20
21594;BME280;10959;51.328;7.322;2023-06-14T08:17:44;73053.09;;;-147.06;34.10
21594;BME280;10959;51.328;7.322;2023-06-14T08:20:11;73036.69;;;-147.06;34.17
21594;BME280;10959;51.328;7.322;2023-06-14T08:22:38;73016.22;;;-147.06;34.36
21594;BME280;10959;51.328;7.322;2023-06-14T08:25:08;72999.84;;;-147.06;33.60
21594;BME280;10959;51.328;7.322;2023-06-14T08:27:34;72971.16;;;-147.06;32.69
21594;BME280;10959;51.328;7.322;2023-06-14T08:30:01;73014.16;;;-147.06;32.30
21594;BME280;10959;51.328;7.322;2023-06-14T08:32:29;72983.44;;;-147.06;32.91
21594;BME280;10959;51.328;7.322;2023-06-14T08:34:55;72971.16;;;-147.06;32.62
21594;BME280;10959;51.328;7.322;2023-06-14T08:37:22;73001.88;;;-147.06;32.34
21594;BME280;10959;51.328;7.322;2023-06-14T08:39:49;72999.84;;;-147.06;32.34
21594;BME280;10959;51.328;7.322;2023-06-14T08:42:15;72987.53;;;-147.06;32.65
21594;BME280;10959;51.328;7.322;2023-06-14T08:44:43;72995.72;;;-147.06;32.48
21594;BME280;10959;51.328;7.322;2023-06-14T08:47:10;72983.44;;;-147.06;32.22
21594;BME280;10959;51.328;7.322;2023-06-14T08:49:40;72991.63;;;-147.06;31.92
21594;BME280;10959;51.328;7.322;2023-06-14T08:52:13;72950.69;;;-147.06;31.63
21594;BME280;10959;51.328;7.322;2023-06-14T08:54:41;72901.53;;;-147.06;31.51
21594;BME280;10959;51.328;7.322;2023-06-14T08:57:10;72909.72;;;-147.06;30.62
21594;BME280;10959;51.328;7.322;2023-06-14T08:59:45;72983.44;;;-147.06;30.70
21594;BME280;10959;51.328;7.322;2023-06-14T09:02:14;72969.09;;;-147.06;31.11
21594;BME280;10959;51.328;7.322;2023-06-14T09:04:44;72942.50;;;-147.06;31.16
21594;BME280;10959;51.328;7.322;2023-06-14T09:07:11;72932.25;;;-147.06;30.94
21594;BME280;10959;51.328;7.322;2023-06-14T09:09:41;72930.19;;;-147.06;31.11
21594;BME280;10959;51.328;7.322;2023-06-14T09:12:08;72915.88;;;-147.06;31.61
21594;BME280;10959;51.328;7.322;2023-06-14T09:14:36;72905.63;;;-147.06;30.90
21594;BME280;10959;51.328;7.322;2023-06-14T09:17:05;72930.19;;;-147.06;31.28
21594;BME280;10959;51.328;7.322;2023-06-14T09:19:31;72999.84;;;-147.06;31.21
21594;BME280;10959;51.328;7.322;2023-06-14T09:21:59;72973.22;;;-147.06;31.35
21594;BME280;10959;51.328;7.322;2023-06-14T09:24:25;72930.19;;;-147.06;31.18
21594;BME280;10959;51.328;7.322;2023-06-14T09:26:53;72881.03;;;-147.06;31.44
21594;BME280;10959;51.328;7.322;2023-06-14T09:29:19;72827.78;;;-147.06;30.57
21594;BME280;10959;51.328;7.322;2023-06-14T09:31:47;72842.13;;;-147.06;30.69
21594;BME280;10959;51.328;7.322;2023-06-14T09:34:13;72876.94;;;-147.06;31.16
21594;BME280;10959;51.328;7.322;2023-06-14T09:36:43;72891.28;;;-147.06;31.30
21594;BME280;10959;51.328;7.322;2023-06-14T09:39:17;72938.38;;;-147.06;32.01
21594;BME280;10959;51.328;7.322;2023-06-14T09:41:43;72885.16;;;-147.06;31.91
21594;BME280;10959;51.328;7.322;2023-06-14T09:44:10;72881.03;;;-147.06;31.54
21594;BME280;10959;51.328;7.322;2023-06-14T09:46:37;72872.84;;;-147.06;32.02
21594;BME280;10959;51.328;7.322;2023-06-14T09:49:05;72831.91;;;-147.06;31.58
21594;BME280;10959;51.328;7.322;2023-06-14T09:51:31;72786.84;;;-147.06;30.97
21594;BME280;10959;51.328;7.322;2023-06-14T09:53:59;72766.34;;;-147.06;31.23
21594;BME280;10959;51.328;7.322;2023-06-14T09:56:28;72819.59;;;-147.06;30.74
21594;BME280;10959;51.328;7.322;2023-06-14T09:58:58;72876.94;;;-147.06;31.54
21594;BME280;10959;51.328;7.322;2023-06-14T10:01:25;72831.91;;;-147.06;31.90
21594;BME280;10959;51.328;7.322;2023-06-14T10:03:55;72833.94;;;-147.06;31.70
21594;BME280;10959;51.328;7.322;2023-06-14T10:06:27;72831.91;;;-147.06;31.61
21594;BME280;10959;51.328;7.322;2023-06-14T10:08:57;72790.94;;;-147.06;31.75
21594;BME280;10959;51.328;7.322;2023-06-14T10:11:25;72749.97;;;-147.06;31.12
21594;BME280;10959;51.328;7.322;2023-06-14T10:13:54;72747.94;;;-147.06;30.67
21594;BME280;10959;51.328;7.322;2023-06-14T10:16:24;72780.69;;;-147.06;30.64
21594;BME280;10959;51.328;7.322;2023-06-14T10:19:01;72838.03;;;-147.06;30.69
21594;BME280;10959;51.328;7.322;2023-06-14T10:21:36;72799.13;;;-147.06;31.22
21594;BME280;10959;51.328;7.322;2023-06-14T10:24:07;72784.78;;;-147.06;30.76
21594;BME280;10959;51.328;7.322;2023-06-14T10:26:50;72868.75;;;-147.06;30.65
21594;BME280;10959;51.328;7.322;2023-06-14T10:29:18;72817.56;;;-147.06;31.21
21594;BME280;10959;51.328;7.322;2023-06-14T10:31:46;72823.69;;;-147.06;30.76
21594;BME280;10959;51.328;7.322;2023-06-14T10:34:21;72862.63;;;-147.06;31.13
21594;BME280;10959;51.328;7.322;2023-06-14T10:37:00;72813.47;;;-147.06;30.84
21594;BME280;10959;51.328;7.322;2023-06-14T10:39:27;72758.16;;;-147.06;31.04
21594;BME280;10959;51.328;7.322;2023-06-14T10:41:55;72797.06;;;-147.06;31.53
21594;BME280;10959;51.328;7.322;2023-06-14T10:44:47;72790.94;;;-147.06;31.58
21594;BME280;10959;51.328;7.322;2023-06-14T10:47:24;72733.59;;;-147.06;31.34
21594;BME280;10959;51.328;7.322;2023-06-14T10:49:52;72729.50;;;-147.06;31.28
21594;BME280;10959;51.328;7.322;2023-06-14T10:52:27;72745.88;;;-147.06;30.75
21594;BME280;10959;51.328;7.322;2023-06-14T10:55:08;72795.03;;;-147.06;31.53
21594;BME280;10959;51.328;7.322;2023-06-14T10:57:41;72811.41;;;-147.06;31.58
21594;BME280;10959;51.328;7.322;2023-06-14T11:00:11;72754.06;;;-147.06;31.51
21594;BME280;10959;51.328;7.322;2023-06-14T11:03:33;72754.06;;;-147.06;31.02
21594;BME280;10959;51.328;7.322;2023-06-14T11:06:13;72711.06;;;-147.06;31.30
21594;BME280;10959;51.328;7.322;2023-06-14T11:11:33;72647.56;;;-147.06;30.30
21594;BME280;10959;51.328;7.322;2023-06-14T11:14:02;72659.88;;;-147.06;30.99
21594;BME280;10959;51.328;7.322;2023-06-14T11:16:30;72647.56;;;-147.06;31.56
21594;BME280;10959;51.328;7.322;2023-06-14T11:19:00;72623.00;;;-147.06;30.34
21594;BME280;10959;51.328;7.322;2023-06-14T11:21:26;72700.81;;;-147.06;30.69
21594;BME280;10959;51.328;7.322;2023-06-14T11:23:56;72737.69;;;-147.06;30.88
21594;BME280;10959;51.328;7.322;2023-06-14T11:26:26;72768.41;;;-147.06;31.89
21594;BME280;10959;51.328;7.322;2023-06-14T11:28:55;72719.25;;;-147.06;31.49
21594;BME280;10959;51.328;7.322;2023-06-14T11:31:22;72700.81;;;-147.06;31.38
21594;BME280;10959;51.328;7.322;2023-06-14T11:33:51;72676.25;;;-147.06;31.02
21594;BME280;10959;51.328;7.322;2023-06-14T11:36:19;72639.38;;;-147.06;30.87
21594;BME280;10959;51.328;7.322;2023-06-14T11:38:45;72676.25;;;-147.06;30.14
21594;BME280;10959;51.328;7.322;2023-06-14T11:41:12;72696.72;;;-147.06;30.99
21594;BME280;10959;51.328;7.322;2023-06-14T11:43:39;72676.25;;;-147.06;30.60
21594;BME280;10959;51.328;7.322;2023-06-14T11:46:12;72684.44;;;-147.06;31.39
21594;BME280;10959;51.328;7.322;2023-06-14T11:48:41;72645.53;;;-147.06;30.64
21594;BME280;10959;51.328;7.322;2023-06-14T11:51:09;72668.06;;;-147.06;30.58
21594;BME280;10959;51.328;7.322;2023-06-14T11:53:36;72715.16;;;-147.06;30.74
21594;BME280;10959;51.328;7.322;2023-06-14T11:56:04;72760.22;;;-147.06;31.25
21594;BME280;10959;51.328;7.322;2023-06-14T11:58:30;72782.75;;;-147.06;31.56
21594;BME280;10959;51.328;7.322;2023-06-14T12:00:57;72741.78;;;-147.06;31.30
21594;BME280;10959;51.328;7.322;2023-06-14T12:03:23;72680.34;;;-147.06;31.46
21594;BME280;10959;51.328;7.322;2023-06-14T12:05:51;72641.44;;;-147.06;30.76
21594;BME280;10959;51.328;7.322;2023-06-14T12:08:33;72647.56;;;-147.06;31.08
21594;BME280;10959;51.328;7.322;2023-06-14T12:11:04;72618.91;;;-147.06;30.35
21594;BME280;10959;51.328;7.322;2023-06-14T12:13:30;72610.72;;;-147.06;29.76
21594;BME280;10959;51.328;7.322;2023-06-14T12:15:57;72575.91;;;-147.06;31.04
21594;BME280;10959;51.328;7.322;2023-06-14T12:18:31;72606.63;;;-147.06;30.26
21594;BME280;10959;51.328;7.322;2023-06-14T12:20:59;72610.72;;;-147.06;30.90
21594;BME280;10959;51.328;7.322;2023-06-14T12:23:40;72696.72;;;-147.06;30.54
21594;BME280;10959;51.328;7.322;2023-06-14T12:26:08;72729.50;;;-147.06;30.92
21594;BME280;10959;51.328;7.322;2023-06-14T12:28:34;72754.06;;;-147.06;31.39
21594;BME280;10959;51.328;7.322;2023-06-14T12:31:01;72778.66;;;-147.06;31.59
21594;BME280;10959;51.328;7.322;2023-06-14T12:33:28;72729.50;;;-147.06;31.71
21594;BME280;10959;51.328;7.322;2023-06-14T12:35:55;72711.06;;;-147.06;31.30
21594;BME280;10959;51.328;7.322;2023-06-14T12:38:22;72713.13;;;-147.06;31.70
21594;BME280;10959;51.328;7.322;2023-06-14T12:40:50;72713.13;;;-147.06;31.31
21594;BME280;10959;51.328;7.322;2023-06-14T12:43:17;72713.13;;;-147.06;31.07
21594;BME280;10959;51.328;7.322;2023-06-14T12:45:44;72704.91;;;-147.06;30.93
21594;BME280;10959;51.328;7.322;2023-06-14T12:48:10;72721.31;;;-147.06;31.26